createdAt,value
2023-09-27T00:01:25.824Z,5.40
2023-09-27T00:03:52.614Z,5.10
2023-09-27T00:06:19.349Z,5.70
2023-09-27T00:08:46.227Z,5.47
2023-09-27T00:11:13.421Z,4.60
2023-09-27T00:13:40.295Z,5.32
2023-09-27T00:16:07.020Z,5.20
2023-09-27T00:18:34.475Z,5.18
2023-09-27T00:21:01.214Z,5.80
2023-09-27T00:23:28.114Z,5.03
2023-09-27T00:25:54.786Z,5.80
2023-09-27T00:28:21.544Z,5.25
2023-09-27T00:30:51.015Z,5.50
2023-09-27T00:33:17.743Z,5.55
2023-09-27T00:35:49.625Z,5.22
2023-09-27T00:38:16.306Z,5.40
2023-09-27T00:40:48.085Z,6.07
2023-09-27T00:43:31.439Z,5.30
2023-09-27T00:46:02.436Z,6.00
2023-09-27T00:48:30.944Z,5.93
2023-09-27T00:50:58.149Z,5.47
2023-09-27T00:53:30.092Z,6.32
2023-09-27T00:55:57.315Z,5.93
2023-09-27T00:58:25.440Z,5.13
2023-09-27T01:00:53.297Z,5.70
2023-09-27T01:03:20.557Z,5.80
2023-09-27T01:05:48.477Z,5.35
2023-09-27T01:08:15.166Z,5.85
2023-09-27T01:10:42.540Z,5.65
2023-09-27T01:13:10.171Z,5.45
2023-09-27T01:15:37.027Z,5.05
2023-09-27T01:18:03.972Z,5.22
2023-09-27T01:20:32.410Z,5.72
2023-09-27T01:23:03.595Z,5.57
2023-09-27T01:25:35.019Z,5.68
2023-09-27T01:28:05.005Z,5.72
2023-09-27T01:30:35.151Z,5.68
2023-09-27T01:33:12.373Z,6.07
2023-09-27T01:35:40.669Z,5.82
2023-09-27T01:38:08.987Z,5.20
2023-09-27T01:40:41.240Z,5.70
2023-09-27T01:43:08.425Z,5.60
2023-09-27T01:45:35.627Z,6.07
2023-09-27T01:48:03.281Z,5.95
2023-09-27T01:50:33.437Z,5.50
2023-09-27T01:53:01.163Z,5.88
2023-09-27T01:55:28.799Z,5.40
2023-09-27T01:57:56.599Z,6.95
2023-09-27T02:00:23.658Z,6.28
2023-09-27T02:02:51.885Z,6.05
2023-09-27T02:05:19.091Z,5.93
2023-09-27T02:07:45.952Z,6.05
2023-09-27T02:10:13.839Z,5.85
2023-09-27T02:12:40.833Z,6.28
2023-09-27T02:15:10.354Z,6.75
2023-09-27T02:17:40.611Z,6.43
2023-09-27T02:20:09.941Z,6.13
2023-09-27T02:22:37.470Z,6.10
2023-09-27T02:25:06.390Z,6.75
2023-09-27T02:27:33.632Z,6.55
2023-09-27T02:30:00.383Z,5.85
2023-09-27T02:32:27.158Z,6.07
2023-09-27T02:34:53.997Z,6.15
2023-09-27T02:37:21.718Z,5.90
2023-09-27T02:39:49.034Z,5.68
2023-09-27T02:42:15.713Z,6.25
2023-09-27T02:44:42.618Z,6.13
2023-09-27T02:47:09.546Z,6.00
2023-09-27T02:49:36.424Z,5.60
2023-09-27T02:52:03.110Z,6.60
2023-09-27T02:54:29.903Z,5.50
2023-09-27T02:56:56.755Z,5.45
2023-09-27T02:59:23.523Z,6.18
2023-09-27T03:01:50.468Z,5.43
2023-09-27T03:04:17.238Z,6.22
2023-09-27T03:06:43.862Z,5.90
2023-09-27T03:09:14.031Z,6.00
2023-09-27T03:11:43.249Z,5.32
2023-09-27T03:14:10.300Z,6.32
2023-09-27T03:16:38.539Z,6.13
2023-09-27T03:19:05.719Z,5.80
2023-09-27T03:21:32.422Z,5.63
2023-09-27T03:23:59.119Z,6.32
2023-09-27T03:26:25.858Z,6.50
2023-09-27T03:28:53.349Z,6.32
2023-09-27T03:31:21.078Z,5.70
2023-09-27T03:33:47.753Z,6.30
2023-09-27T03:36:16.062Z,6.00
2023-09-27T03:38:43.441Z,5.85
2023-09-27T03:41:11.141Z,5.95
2023-09-27T03:43:38.544Z,5.90
2023-09-27T03:46:05.529Z,6.15
2023-09-27T03:48:33.175Z,5.97
2023-09-27T03:51:00.302Z,6.00
2023-09-27T03:53:27.082Z,6.15
2023-09-27T03:55:53.779Z,5.82
2023-09-27T03:58:21.339Z,6.13
2023-09-27T04:00:48.285Z,5.78
2023-09-27T04:03:15.094Z,6.63
2023-09-27T04:05:42.052Z,6.55
2023-09-27T04:08:12.069Z,6.25
2023-09-27T04:10:38.790Z,6.35
2023-09-27T04:13:05.543Z,6.10
2023-09-27T04:15:32.424Z,5.72
2023-09-27T04:17:59.275Z,6.10
2023-09-27T04:20:26.920Z,5.85
2023-09-27T04:22:53.649Z,5.85
2023-09-27T04:25:21.052Z,6.50
2023-09-27T04:27:51.147Z,5.70
2023-09-27T04:30:23.331Z,6.30
2023-09-27T04:32:54.350Z,5.97
2023-09-27T04:35:21.988Z,6.30
2023-09-27T04:37:49.754Z,6.25
2023-09-27T04:40:16.827Z,6.40
2023-09-27T04:42:45.080Z,6.18
2023-09-27T04:45:13.993Z,7.38
2023-09-27T04:47:42.406Z,6.50
2023-09-27T04:50:19.184Z,6.50
2023-09-27T04:52:46.390Z,6.80
2023-09-27T04:55:14.297Z,7.22
2023-09-27T04:57:41.787Z,6.60
2023-09-27T05:00:15.415Z,6.70
2023-09-27T05:02:42.714Z,6.65
2023-09-27T05:05:09.902Z,6.30
2023-09-27T05:07:36.669Z,6.18
2023-09-27T05:10:04.615Z,6.05
2023-09-27T05:12:31.326Z,6.47
2023-09-27T05:14:59.563Z,6.28
2023-09-27T05:17:26.769Z,6.53
2023-09-27T05:19:54.629Z,6.15
2023-09-27T05:22:21.625Z,6.00
2023-09-27T05:24:48.614Z,6.85
2023-09-27T05:27:46.361Z,6.25
2023-09-27T05:30:13.643Z,6.32
2023-09-27T07:33:18.943Z,5.10
2023-09-27T07:35:46.522Z,4.28
2023-09-27T07:38:13.254Z,4.30
2023-09-27T07:40:40.124Z,5.15
2023-09-27T07:43:06.996Z,4.25
2023-09-27T07:45:36.628Z,4.80
2023-09-27T07:48:04.916Z,4.35
2023-09-27T07:50:34.911Z,4.47
2023-09-27T07:53:05.254Z,4.82
2023-09-27T07:55:35.154Z,4.90
2023-09-27T07:58:02.297Z,4.95
2023-09-27T08:00:30.902Z,5.00
2023-09-27T08:03:01.896Z,4.88
2023-09-27T08:05:29.132Z,4.40
2023-09-27T08:07:56.258Z,3.80
2023-09-27T08:10:23.670Z,4.38
2023-09-27T08:12:50.571Z,4.25
2023-09-27T08:15:19.462Z,4.50
2023-09-27T08:17:47.631Z,4.53
2023-09-27T08:20:15.001Z,4.53
2023-09-27T08:22:41.939Z,4.53
2023-09-27T08:25:18.461Z,4.55
2023-09-27T08:27:45.830Z,4.20
2023-09-27T08:30:13.569Z,4.65
2023-09-27T08:32:41.134Z,4.40
2023-09-27T08:35:09.813Z,4.72
2023-09-27T08:37:36.952Z,4.97
2023-09-27T08:40:08.568Z,4.32
2023-09-27T08:42:35.558Z,4.43
2023-09-27T08:45:07.162Z,4.60
2023-09-27T08:47:34.578Z,3.92
2023-09-27T08:50:01.464Z,4.10
2023-09-27T08:52:29.310Z,3.85
2023-09-27T08:54:56.207Z,4.22
2023-09-27T08:57:30.108Z,3.83
2023-09-27T08:59:57.103Z,4.07
2023-09-27T09:02:27.965Z,3.80
2023-09-27T09:04:55.483Z,3.80
2023-09-27T09:07:22.293Z,4.22
2023-09-27T09:09:49.134Z,3.60
2023-09-27T09:12:15.716Z,3.40
2023-09-27T09:14:44.413Z,4.18
2023-09-27T09:17:20.112Z,3.30
2023-09-27T09:20:17.456Z,4.07
2023-09-27T09:22:45.722Z,3.42
2023-09-27T09:25:12.999Z,3.70
2023-09-27T09:27:41.776Z,3.40
2023-09-27T09:30:13.289Z,3.53
2023-09-27T09:32:52.974Z,3.45
2023-09-27T09:35:35.487Z,3.08
2023-09-27T09:38:04.214Z,3.42
2023-09-27T09:40:32.909Z,3.65
2023-09-27T09:43:01.091Z,3.25
2023-09-27T09:45:30.296Z,2.70
2023-09-27T09:47:57.817Z,3.00
2023-09-27T09:50:24.826Z,3.05
2023-09-27T09:52:59.225Z,3.10
2023-09-27T09:55:45.636Z,3.50
2023-09-27T09:58:49.039Z,3.45
2023-09-27T10:01:23.000Z,3.40
2023-09-27T10:03:52.818Z,3.55
2023-09-27T10:06:32.460Z,3.70
2023-09-27T10:09:15.447Z,3.33
2023-09-27T10:11:46.944Z,3.53
2023-09-27T10:14:17.190Z,2.92
2023-09-27T10:16:44.697Z,3.00
2023-09-27T10:19:11.864Z,3.05
2023-09-27T10:22:09.045Z,3.50
2023-09-27T10:24:37.339Z,3.67
2023-09-27T10:27:04.210Z,2.83
2023-09-27T10:29:30.935Z,3.17
2023-09-27T10:31:57.727Z,3.28
2023-09-27T10:34:28.788Z,3.30
2023-09-27T10:37:14.979Z,3.60
2023-09-27T10:40:22.180Z,3.28
2023-09-27T10:42:49.662Z,3.30
2023-09-27T10:45:18.420Z,3.42
2023-09-27T10:47:48.144Z,4.38
2023-09-27T10:50:15.157Z,3.35
2023-09-27T10:52:42.066Z,3.50
2023-09-27T10:55:13.225Z,3.47
2023-09-27T10:57:43.264Z,3.90
2023-09-27T11:00:14.127Z,3.28
2023-09-27T11:02:43.055Z,3.47
2023-09-27T11:05:10.477Z,3.30
2023-09-27T11:07:48.228Z,3.42
2023-09-27T11:10:29.670Z,3.55
2023-09-27T11:13:07.495Z,3.20
2023-09-27T11:15:34.473Z,3.50
2023-09-27T11:18:01.257Z,3.05
2023-09-27T11:20:28.109Z,2.95
2023-09-27T11:22:59.700Z,3.28
2023-09-27T11:25:28.521Z,3.80
2023-09-27T11:27:55.446Z,3.40
2023-09-27T11:30:31.330Z,3.95
2023-09-27T11:32:59.240Z,3.65
2023-09-27T11:35:27.342Z,3.13
2023-09-27T11:38:11.052Z,3.42
2023-09-27T11:40:39.625Z,3.05
2023-09-27T11:43:06.829Z,3.17
2023-09-27T11:46:04.404Z,3.35
2023-09-27T11:48:34.852Z,3.55
2023-09-27T11:51:02.744Z,3.90
2023-09-27T11:53:29.743Z,3.78
2023-09-27T11:55:56.836Z,3.60
2023-09-27T11:58:26.161Z,3.38
2023-09-27T12:00:53.094Z,3.58
2023-09-27T12:03:19.922Z,3.25
2023-09-27T12:05:47.468Z,3.13
2023-09-27T12:08:14.336Z,2.95
2023-09-27T12:10:41.179Z,3.50
2023-09-27T12:13:08.459Z,3.15
2023-09-27T12:15:35.130Z,3.40
2023-09-27T12:18:01.998Z,3.15
2023-09-27T12:20:40.285Z,3.50
2023-09-27T12:23:10.499Z,3.38
2023-09-27T12:25:38.081Z,3.15
2023-09-27T12:28:05.018Z,3.10
2023-09-27T12:30:31.938Z,3.30
2023-09-27T12:32:58.813Z,3.00
2023-09-27T12:35:25.790Z,2.80
2023-09-27T12:37:52.528Z,3.03
2023-09-27T12:40:19.590Z,3.00
2023-09-27T12:42:46.304Z,3.08
2023-09-27T12:45:13.094Z,2.70
2023-09-27T12:47:40.110Z,2.90
2023-09-27T12:50:08.211Z,4.32
2023-09-27T12:52:35.832Z,2.70
2023-09-27T12:55:02.781Z,3.33
2023-09-27T12:57:29.459Z,2.88
2023-09-27T12:59:57.086Z,2.65
2023-09-27T13:02:23.960Z,2.70
2023-09-27T13:04:50.630Z,2.72
2023-09-27T13:07:18.377Z,2.90
2023-09-27T13:09:45.580Z,2.58
2023-09-27T13:12:12.245Z,2.80
2023-09-27T13:14:38.939Z,2.80
2023-09-27T13:17:05.795Z,2.45
2023-09-27T13:19:32.659Z,2.45
2023-09-27T13:21:59.642Z,2.63
2023-09-27T13:24:26.472Z,2.95
2023-09-27T13:26:53.226Z,2.47
2023-09-27T13:29:19.953Z,2.47
2023-09-27T13:31:46.647Z,2.45
2023-09-27T13:34:13.909Z,2.42
2023-09-27T13:36:41.664Z,2.60
2023-09-27T13:39:15.208Z,2.25
2023-09-27T13:44:15.601Z,2.65
2023-09-27T13:46:42.931Z,3.35
2023-09-27T13:49:10.104Z,3.90
2023-09-27T13:51:37.902Z,3.72
2023-09-27T13:54:09.296Z,4.20
2023-09-27T13:56:38.274Z,2.70
2023-09-27T13:59:05.761Z,2.80
2023-09-27T14:01:32.904Z,2.67
2023-09-27T14:04:00.251Z,2.70
2023-09-27T14:06:31.449Z,2.60
2023-09-27T14:09:01.199Z,2.58
2023-09-27T14:11:28.174Z,2.75
2023-09-27T14:13:55.035Z,3.20
2023-09-27T14:16:22.009Z,3.90
2023-09-27T14:18:48.942Z,3.60
2023-09-27T14:21:15.605Z,2.72
2023-09-27T14:23:45.888Z,2.67
2023-09-27T14:26:12.883Z,3.50
2023-09-27T14:28:40.169Z,2.80
2023-09-27T14:31:06.968Z,2.85
2023-09-27T14:33:35.058Z,3.25
2023-09-27T14:36:05.711Z,3.20
2023-09-27T14:38:35.986Z,3.70
2023-09-27T14:41:10.284Z,2.95
2023-09-27T14:43:40.383Z,3.33
2023-09-27T14:46:13.749Z,2.40
2023-09-27T14:48:41.637Z,3.05
2023-09-27T14:51:12.964Z,2.65
2023-09-27T14:53:42.128Z,2.70
2023-09-27T14:56:10.480Z,2.67
2023-09-27T14:58:37.782Z,2.85
2023-09-27T15:01:05.553Z,2.70
2023-09-27T15:03:33.808Z,2.83
2023-09-27T15:06:05.087Z,2.90
2023-09-27T15:08:32.091Z,3.20
2023-09-27T15:10:58.893Z,2.83
2023-09-27T15:13:26.502Z,2.80
2023-09-27T15:15:53.554Z,2.97
2023-09-27T15:18:21.935Z,2.80
2023-09-27T15:20:50.543Z,2.90
2023-09-27T15:23:17.225Z,2.97
2023-09-27T15:25:43.928Z,3.05
2023-09-27T15:28:10.610Z,2.97
2023-09-27T15:30:37.747Z,2.80
2023-09-27T15:33:04.722Z,2.95
2023-09-27T15:35:31.818Z,3.05
2023-09-27T15:37:59.559Z,3.15
2023-09-27T15:40:26.394Z,3.22
2023-09-27T15:42:56.707Z,3.50
2023-09-27T15:45:29.252Z,2.88
2023-09-27T15:47:56.018Z,3.38
2023-09-27T15:50:22.812Z,3.28
2023-09-27T15:52:49.588Z,3.42
2023-09-27T15:55:18.123Z,3.40
2023-09-27T15:57:45.162Z,3.70
2023-09-27T16:00:14.899Z,3.35
2023-09-27T16:02:41.579Z,3.50
2023-09-27T16:05:12.701Z,3.80
2023-09-27T16:07:40.545Z,3.47
2023-09-27T16:10:10.711Z,3.50
2023-09-27T16:12:37.983Z,3.47
2023-09-27T16:15:10.885Z,3.47
2023-09-27T16:17:40.220Z,3.60
2023-09-27T16:20:08.240Z,3.67
2023-09-27T16:22:35.158Z,3.40
2023-09-27T16:25:05.281Z,3.45
2023-09-27T16:27:32.488Z,3.70
2023-09-27T16:29:59.248Z,3.72
2023-09-27T16:32:26.577Z,3.53
2023-09-27T16:34:53.388Z,3.50
2023-09-27T16:37:20.463Z,3.80
2023-09-27T16:39:48.718Z,3.65
2023-09-27T16:42:15.387Z,3.45
2023-09-27T16:44:42.176Z,4.07
2023-09-27T16:47:09.127Z,4.32
2023-09-27T16:49:35.828Z,4.50
2023-09-27T16:52:03.871Z,3.78
2023-09-27T16:54:30.558Z,3.70
2023-09-27T16:56:58.230Z,4.10
2023-09-27T16:59:25.229Z,4.05
2023-09-27T17:01:54.941Z,4.25
2023-09-27T17:04:21.785Z,4.63
2023-09-27T17:06:51.467Z,4.20
2023-09-27T17:09:18.099Z,4.10
2023-09-27T17:11:44.744Z,4.40
2023-09-27T17:14:12.104Z,4.20
2023-09-27T17:16:38.933Z,4.20
2023-09-27T17:19:06.386Z,4.47
2023-09-27T17:21:34.625Z,4.40
2023-09-27T17:24:01.280Z,4.10
2023-09-27T17:26:29.570Z,3.97
2023-09-27T17:28:56.487Z,4.50
2023-09-27T17:31:23.335Z,4.20
2023-09-27T17:33:50.131Z,4.72
2023-09-27T17:36:17.004Z,4.75
2023-09-27T17:38:43.604Z,4.30
2023-09-27T17:41:10.695Z,4.75
2023-09-27T17:43:37.947Z,4.78
2023-09-27T17:46:27.846Z,4.70
2023-09-27T17:48:57.329Z,4.40
2023-09-27T17:51:24.462Z,4.90
2023-09-27T17:53:52.396Z,4.43
2023-09-27T17:56:21.758Z,4.75
2023-09-27T17:58:48.826Z,5.38
2023-09-27T18:01:15.601Z,4.90
2023-09-27T18:03:42.723Z,5.10
2023-09-27T18:06:14.273Z,4.75
2023-09-27T18:08:41.428Z,4.57
2023-09-27T18:11:12.127Z,4.72
2023-09-27T18:13:40.119Z,4.22
2023-09-27T18:16:18.193Z,4.57
2023-09-27T18:18:46.136Z,4.03
2023-09-27T18:21:22.874Z,4.68
2023-09-27T18:23:52.946Z,4.63
2023-09-27T18:26:20.052Z,5.15
2023-09-27T18:28:51.916Z,4.45
2023-09-27T18:31:21.670Z,4.78
2023-09-27T18:33:48.436Z,4.90
2023-09-27T18:36:15.145Z,5.18
2023-09-27T18:38:46.770Z,5.35
2023-09-27T18:41:13.624Z,4.68
2023-09-27T18:43:40.266Z,5.28
2023-09-27T18:46:07.148Z,5.25
2023-09-27T18:48:34.381Z,5.63
2023-09-27T18:51:01.335Z,4.88
2023-09-27T18:53:27.971Z,5.18
2023-09-27T18:55:57.291Z,5.38
2023-09-27T18:58:25.336Z,5.03
2023-09-27T19:04:31.372Z,5.28
2023-09-27T19:06:58.289Z,4.75
2023-09-27T19:09:26.464Z,5.63
2023-09-27T19:11:54.516Z,5.45
2023-09-27T19:16:59.952Z,5.32
2023-09-27T19:19:26.651Z,5.35
2023-09-27T19:21:53.303Z,5.22
2023-09-27T19:24:20.428Z,5.15
2023-09-27T19:26:47.078Z,5.63
2023-09-27T19:29:13.784Z,5.47
2023-09-27T19:31:40.543Z,5.80
2023-09-27T19:34:07.592Z,5.22
2023-09-27T19:36:36.070Z,5.38
2023-09-27T19:39:05.817Z,5.55
2023-09-27T19:41:33.173Z,5.57
2023-09-27T19:43:59.863Z,5.88
2023-09-27T19:46:26.710Z,5.53
2023-09-27T19:48:56.401Z,5.68
2023-09-27T19:51:25.773Z,6.13
2023-09-27T19:54:01.788Z,6.05
2023-09-27T19:56:31.208Z,6.57
2023-09-27T19:59:01.427Z,5.70
2023-09-27T20:01:30.363Z,6.07
2023-09-27T20:03:57.295Z,5.53
2023-09-27T20:06:26.815Z,6.18
2023-09-27T20:08:53.425Z,6.28
2023-09-27T20:11:20.793Z,5.70
2023-09-27T20:13:48.021Z,6.30
2023-09-27T20:16:15.658Z,6.28
2023-09-27T20:18:42.374Z,6.10
2023-09-27T20:21:09.053Z,6.45
2023-09-27T20:23:35.612Z,6.53
2023-09-27T20:26:03.089Z,5.93
2023-09-27T20:28:29.785Z,6.57
2023-09-27T20:30:56.609Z,6.18
2023-09-27T20:33:23.170Z,6.05
2023-09-27T20:35:49.755Z,6.10
2023-09-27T20:38:16.466Z,6.30
2023-09-27T20:40:43.079Z,6.07
2023-09-27T20:43:09.684Z,6.57
2023-09-27T20:45:36.632Z,6.32
2023-09-27T20:48:03.424Z,7.43
2023-09-27T20:50:30.142Z,6.50
2023-09-27T20:52:57.163Z,6.30
2023-09-27T20:55:25.532Z,6.20
2023-09-27T20:57:52.411Z,6.55
2023-09-27T21:00:23.613Z,6.70
2023-09-27T21:02:50.675Z,6.20
2023-09-27T21:05:17.570Z,6.88
2023-09-27T21:07:44.294Z,6.55
2023-09-27T21:10:11.081Z,6.07
2023-09-27T21:12:37.728Z,6.20
2023-09-27T21:15:06.895Z,6.65
2023-09-27T21:17:33.765Z,6.28
2023-09-27T21:20:01.663Z,6.28
2023-09-27T21:22:28.480Z,6.35
2023-09-27T21:24:55.098Z,6.82
2023-09-27T21:27:21.694Z,6.80
2023-09-27T21:29:48.419Z,6.20
2023-09-27T21:32:15.020Z,6.82
2023-09-27T21:34:41.822Z,6.43
2023-09-27T21:37:08.798Z,6.57
2023-09-27T21:39:36.635Z,6.50
2023-09-27T21:42:03.263Z,6.35
2023-09-27T21:44:31.387Z,6.75
2023-09-27T21:46:58.016Z,6.07
2023-09-27T21:49:25.739Z,6.40
2023-09-27T21:51:52.726Z,7.03
2023-09-27T21:54:19.910Z,7.47
2023-09-27T21:56:46.638Z,6.70
2023-09-27T21:59:13.361Z,7.05
2023-09-27T22:01:40.153Z,6.82
2023-09-27T22:04:07.517Z,7.07
2023-09-27T22:06:34.219Z,6.70
2023-09-27T22:09:00.802Z,6.55
2023-09-27T22:11:27.418Z,7.03
2023-09-27T22:13:55.821Z,6.70
2023-09-27T22:16:23.017Z,6.88
2023-09-27T22:18:50.388Z,8.15
2023-09-27T22:21:28.320Z,7.55
2023-09-27T22:23:57.478Z,7.47
2023-09-27T22:26:26.242Z,7.05
2023-09-27T22:28:56.842Z,7.00
2023-09-27T22:31:32.393Z,7.82
2023-09-27T22:34:11.298Z,8.40
2023-09-27T22:36:47.861Z,7.20
2023-09-27T22:39:17.649Z,8.00
2023-09-27T22:41:46.714Z,7.78
2023-09-27T22:44:23.736Z,7.82
2023-09-27T22:46:54.676Z,8.43
2023-09-27T22:49:25.041Z,7.03
2023-09-27T22:51:52.625Z,7.80
2023-09-27T22:54:21.733Z,7.78
2023-09-27T22:56:50.760Z,8.07
2023-09-27T22:59:18.481Z,7.50
2023-09-27T23:01:47.558Z,8.20
2023-09-27T23:04:17.233Z,7.85
2023-09-27T23:07:01.274Z,7.85
2023-09-27T23:09:35.343Z,8.40
2023-09-27T23:12:18.672Z,8.02
2023-09-27T23:15:04.724Z,7.50
2023-09-27T23:17:44.539Z,7.88
2023-09-27T23:20:12.683Z,7.32
2023-09-27T23:22:58.097Z,8.02
2023-09-27T23:25:53.111Z,7.63
2023-09-27T23:30:56.667Z,7.43
2023-09-27T23:33:23.515Z,7.75
2023-09-27T23:35:51.336Z,7.43
2023-09-27T23:38:37.602Z,7.93
2023-09-27T23:41:04.305Z,7.38
2023-09-27T23:43:41.274Z,7.65
2023-09-27T23:46:15.788Z,7.97
2023-09-27T23:48:43.412Z,7.60
2023-09-27T23:51:10.073Z,7.30
2023-09-27T23:53:37.304Z,8.68
2023-09-27T23:56:07.769Z,7.18
2023-09-27T23:58:35.556Z,7.63
